PWSweather.com
Personal Weather Stations
Station Observations
SHAHALMS1
Eftra, Falkenberg, HA

EftraFalkenberg, HA

Lat: 56.85, Lon: 12.65

Elevation: 140

Station Type:

http://hem.passagen.se/risarp101

High Low Average
Temperature 71.6°F22.0°C 54.9°F12.7°C 63.2°F17.3°C
Dew Point 63.5°F17.5°C 50.8°F10.4°C 56.6°F13.7°C
Winds 8.1 mph 13.0 kmh Calm Calm 3.0 mph SSW4.8 kmh SSW
Wind Gusts 16.5 mph26.6 kmh -- 9.0 mph14.5 kmh
Humidity 95% 63% 80%
Pressure 30.09 in1019.0 mb 29.86 in1011.2 mb -
Precipitation 0.23 in5.8 mm - -
Hour Temp Dew Point Humidity Winds Wind Gusts Pressure Precip Precip Rate Daily Precip Total
12:00 AM 60.1°F15.6°C 53.5°F11.9°C 79% 2.6 mph S4.2 kmh S 8.9 mph14.3 kmh 29.92 in1013.2 mb 0.09 in2.3 mm 0.00 in0.0 mm 0.09 in2.3 mm
12:15 AM 59.7°F15.4°C 53.9°F12.2°C 81% 2.4 mph SSE3.9 kmh SSE 9.7 mph15.6 kmh 29.89 in1012.2 mb 0.09 in2.3 mm 0.00 in0.0 mm 0.09 in2.3 mm
12:30 AM 59.5°F15.3°C 54.4°F12.4°C 83% 3.4 mph ESE5.5 kmh ESE 12.5 mph20.1 kmh 29.89 in1012.2 mb 0.18 in4.6 mm 0.36 in9.1 mm 0.18 in4.6 mm
12:45 AM 59.4°F15.2°C 54.5°F12.5°C 84% 6.4 mph ESE10.3 kmh ESE 12.9 mph20.8 kmh 29.92 in1013.2 mb 0.13 in3.3 mm 0.00 in0.0 mm 0.18 in4.6 mm
01:00 AM 59.2°F15.1°C 54.7°F12.6°C 85% 5.3 mph E8.5 kmh E 12.5 mph20.1 kmh 29.92 in1013.2 mb 0.09 in2.3 mm 0.00 in0.0 mm 0.18 in4.6 mm
01:15 AM 59.0°F15.0°C 54.8°F12.7°C 86% 5.6 mph ESE9.0 kmh ESE 12.2 mph19.6 kmh 29.92 in1013.2 mb 0.09 in2.3 mm 0.00 in0.0 mm 0.18 in4.6 mm
01:30 AM 59.2°F15.1°C 55.3°F12.9°C 87% 5.9 mph E9.5 kmh E 11.8 mph19.0 kmh 29.92 in1013.2 mb 0.00 in0.0 mm 0.00 in0.0 mm 0.18 in4.6 mm
01:45 AM 59.2°F15.1°C 55.6°F13.1°C 88% 5.4 mph ESE8.7 kmh ESE 15.7 mph25.3 kmh 29.92 in1013.2 mb 0.00 in0.0 mm 0.00 in0.0 mm 0.18 in4.6 mm
02:00 AM 59.2°F15.1°C 55.6°F13.1°C 88% 4.2 mph ESE6.8 kmh ESE 10.4 mph16.7 kmh 29.89 in1012.2 mb 0.00 in0.0 mm 0.00 in0.0 mm 0.18 in4.6 mm
02:15 AM 59.2°F15.1°C 55.9°F13.3°C 89% 6.5 mph ESE10.5 kmh ESE 13.6 mph21.9 kmh 29.89 in1012.2 mb 0.06 in1.5 mm 0.24 in6.1 mm 0.23 in5.8 mm
02:30 AM 59.2°F15.1°C 56.2°F13.4°C 90% 6.5 mph ESE10.5 kmh ESE 12.5 mph20.1 kmh 29.89 in1012.2 mb 0.06 in1.5 mm 0.00 in0.0 mm 0.23 in5.8 mm
02:45 AM 59.4°F15.2°C 56.4°F13.6°C 90% 8.1 mph ESE13.0 kmh ESE 14.0 mph22.5 kmh 29.86 in1011.2 mb 0.06 in1.5 mm 0.00 in0.0 mm 0.23 in5.8 mm
03:00 AM 59.5°F15.3°C 56.9°F13.8°C 91% 7.2 mph ESE11.6 kmh ESE 12.2 mph19.6 kmh 29.86 in1011.2 mb 0.06 in1.5 mm 0.00 in0.0 mm 0.23 in5.8 mm
03:15 AM 59.7°F15.4°C 57.1°F13.9°C 91% 5.8 mph SE9.3 kmh SE 11.5 mph18.5 kmh 29.86 in1011.2 mb 0.00 in0.0 mm 0.00 in0.0 mm 0.23 in5.8 mm
03:30 AM 59.7°F15.4°C 57.4°F14.1°C 92% 4.4 mph SE7.1 kmh SE 10.0 mph16.1 kmh 29.86 in1011.2 mb 0.00 in0.0 mm 0.00 in0.0 mm 0.23 in5.8 mm
03:45 AM 59.9°F15.5°C 57.6°F14.2°C 92% 3.9 mph SSE6.3 kmh SSE 10.0 mph16.1 kmh 29.86 in1011.2 mb 0.00 in0.0 mm 0.00 in0.0 mm 0.23 in5.8 mm
04:00 AM 60.1°F15.6°C 58.0°F14.4°C 93% 2.4 mph S3.9 kmh S 8.9 mph14.3 kmh 29.86 in1011.2 mb 0.00 in0.0 mm 0.00 in0.0 mm 0.23 in5.8 mm
04:15 AM 60.3°F15.7°C 58.2°F14.6°C 93% 2.5 mph S4.0 kmh S 7.9 mph12.7 kmh 29.86 in1011.2 mb 0.00 in0.0 mm 0.00 in0.0 mm 0.23 in5.8 mm
04:30 AM 60.4°F15.8°C 58.4°F14.7°C 93% 1.6 mph S2.6 kmh S 6.4 mph10.3 kmh 29.89 in1012.2 mb 0.00 in0.0 mm 0.00 in0.0 mm 0.23 in5.8 mm
04:45 AM 60.3°F15.7°C 58.2°F14.6°C 93% 1.7 mph S2.7 kmh S 5.4 mph8.7 kmh 29.89 in1012.2 mb 0.00 in0.0 mm 0.00 in0.0 mm 0.23 in5.8 mm
05:00 AM 60.4°F15.8°C 58.7°F14.8°C 94% 1.0 mph S1.6 kmh S 3.9 mph6.3 kmh 29.89 in1012.2 mb 0.00 in0.0 mm 0.00 in0.0 mm 0.23 in5.8 mm
05:15 AM 60.6°F15.9°C 58.9°F14.9°C 94% Calm Calm -- 29.89 in1012.2 mb 0.00 in0.0 mm 0.00 in0.0 mm 0.23 in5.8 mm
05:30 AM 60.6°F15.9°C 58.9°F14.9°C 94% Calm Calm -- 29.92 in1013.2 mb 0.00 in0.0 mm 0.00 in0.0 mm 0.23 in5.8 mm
05:45 AM 61.3°F16.3°C 59.9°F15.5°C 95% 1.1 mph NW1.8 kmh NW 6.1 mph9.8 kmh 29.92 in1013.2 mb 0.00 in0.0 mm 0.00 in0.0 mm 0.23 in5.8 mm
06:00 AM 62.1°F16.7°C 60.6°F15.9°C 95% 2.5 mph SSW4.0 kmh SSW 8.9 mph14.3 kmh 29.92 in1013.2 mb 0.00 in0.0 mm 0.00 in0.0 mm 0.23 in5.8 mm
06:15 AM 62.2°F16.8°C 60.8°F16.0°C 95% 2.1 mph W3.4 kmh W 9.7 mph15.6 kmh 29.92 in1013.2 mb 0.00 in0.0 mm 0.00 in0.0 mm 0.23 in5.8 mm
06:30 AM 62.6°F17.0°C 61.1°F16.2°C 95% 2.5 mph NW4.0 kmh NW 6.8 mph10.9 kmh 29.89 in1012.2 mb 0.00 in0.0 mm 0.00 in0.0 mm 0.23 in5.8 mm
06:45 AM 62.6°F17.0°C 60.8°F16.0°C 94% 1.7 mph WNW2.7 kmh WNW 7.5 mph12.1 kmh 29.92 in1013.2 mb 0.00 in0.0 mm 0.00 in0.0 mm 0.23 in5.8 mm
07:00 AM 62.6°F17.0°C 60.8°F16.0°C 94% 2.1 mph W3.4 kmh W 7.5 mph12.1 kmh 29.92 in1013.2 mb 0.00 in0.0 mm 0.00 in0.0 mm 0.23 in5.8 mm
07:15 AM 62.6°F17.0°C 60.8°F16.0°C 94% 2.2 mph W3.5 kmh W 8.6 mph13.8 kmh 29.95 in1014.2 mb 0.00 in0.0 mm 0.00 in0.0 mm 0.23 in5.8 mm
07:30 AM 63.7°F17.6°C 62.2°F16.8°C 95% 2.5 mph WNW4.0 kmh WNW 7.5 mph12.1 kmh 29.95 in1014.2 mb 0.00 in0.0 mm 0.00 in0.0 mm 0.23 in5.8 mm
07:45 AM 65.3°F18.5°C 63.5°F17.5°C 94% 2.6 mph WNW4.2 kmh WNW 10.0 mph16.1 kmh 29.95 in1014.2 mb 0.00 in0.0 mm 0.00 in0.0 mm 0.23 in5.8 mm
08:00 AM 65.8°F18.8°C 62.8°F17.1°C 90% 3.5 mph NW5.6 kmh NW 9.7 mph15.6 kmh 29.95 in1014.2 mb 0.00 in0.0 mm 0.00 in0.0 mm 0.23 in5.8 mm
08:15 AM 66.2°F19.0°C 62.5°F16.9°C 88% 2.4 mph WNW3.9 kmh WNW 7.5 mph12.1 kmh 29.95 in1014.2 mb 0.00 in0.0 mm 0.00 in0.0 mm 0.23 in5.8 mm
08:30 AM 66.0°F18.9°C 62.0°F16.7°C 87% 3.5 mph NW5.6 kmh NW 11.8 mph19.0 kmh 29.98 in1015.2 mb 0.00 in0.0 mm 0.00 in0.0 mm 0.23 in5.8 mm
08:45 AM 65.5°F18.6°C 60.8°F16.0°C 85% 4.4 mph W7.1 kmh W 16.1 mph25.9 kmh 29.98 in1015.2 mb 0.00 in0.0 mm 0.00 in0.0 mm 0.23 in5.8 mm
09:00 AM 65.5°F18.6°C 60.5°F15.8°C 84% 2.7 mph NW4.3 kmh NW 12.2 mph19.6 kmh 29.98 in1015.2 mb 0.00 in0.0 mm 0.00 in0.0 mm 0.23 in5.8 mm
09:15 AM 66.0°F18.9°C 60.7°F15.9°C 83% 3.7 mph WNW6.0 kmh WNW 9.7 mph15.6 kmh 29.95 in1014.2 mb 0.00 in0.0 mm 0.00 in0.0 mm 0.23 in5.8 mm
09:30 AM 67.1°F19.5°C 60.7°F15.9°C 80% 4.7 mph WNW7.6 kmh WNW 14.3 mph23.0 kmh 29.98 in1015.2 mb 0.00 in0.0 mm 0.00 in0.0 mm 0.23 in5.8 mm
09:45 AM 67.8°F19.9°C 61.1°F16.2°C 79% 3.7 mph WNW6.0 kmh WNW 10.0 mph16.1 kmh 29.95 in1014.2 mb 0.00 in0.0 mm 0.00 in0.0 mm 0.23 in5.8 mm
10:00 AM 68.0°F20.0°C 60.5°F15.8°C 77% 4.1 mph WNW6.6 kmh WNW 11.5 mph18.5 kmh 29.98 in1015.2 mb 0.00 in0.0 mm 0.00 in0.0 mm 0.23 in5.8 mm
10:15 AM 66.9°F19.4°C 59.1°F15.1°C 76% 2.5 mph WNW4.0 kmh WNW 8.9 mph14.3 kmh 29.98 in1015.2 mb 0.00 in0.0 mm 0.00 in0.0 mm 0.23 in5.8 mm
10:30 AM 67.1°F19.5°C 58.9°F14.9°C 75% 2.9 mph NW4.7 kmh NW 14.0 mph22.5 kmh 29.98 in1015.2 mb 0.00 in0.0 mm 0.00 in0.0 mm 0.23 in5.8 mm
10:45 AM 66.6°F19.2°C 58.0°F14.4°C 74% 2.9 mph NW4.7 kmh NW 7.5 mph12.1 kmh 30.01 in1016.3 mb 0.00 in0.0 mm 0.00 in0.0 mm 0.23 in5.8 mm
11:00 AM 68.0°F20.0°C 59.4°F15.2°C 74% 3.7 mph WNW6.0 kmh WNW 11.1 mph17.9 kmh 30.01 in1016.3 mb 0.00 in0.0 mm 0.00 in0.0 mm 0.23 in5.8 mm
11:15 AM 70.2°F21.2°C 61.5°F16.4°C 74% 3.9 mph WNW6.3 kmh WNW 12.2 mph19.6 kmh 30.01 in1016.3 mb 0.00 in0.0 mm 0.00 in0.0 mm 0.23 in5.8 mm
11:30 AM 70.7°F21.5°C 59.2°F15.1°C 67% 4.1 mph NW6.6 kmh NW 12.2 mph19.6 kmh 30.01 in1016.3 mb 0.00 in0.0 mm 0.00 in0.0 mm 0.23 in5.8 mm
11:45 AM 71.1°F21.7°C 60.0°F15.6°C 68% 4.7 mph WNW7.6 kmh WNW 11.8 mph19.0 kmh 30.04 in1017.3 mb 0.00 in0.0 mm 0.00 in0.0 mm 0.23 in5.8 mm
12:00 PM 71.6°F22.0°C 59.6°F15.3°C 66% 4.5 mph WNW7.2 kmh WNW 11.8 mph19.0 kmh 30.04 in1017.3 mb 0.00 in0.0 mm 0.00 in0.0 mm 0.23 in5.8 mm
12:15 PM 70.9°F21.6°C 59.0°F15.0°C 66% 4.5 mph NW7.2 kmh NW 16.1 mph25.9 kmh 30.04 in1017.3 mb 0.00 in0.0 mm 0.00 in0.0 mm 0.23 in5.8 mm
12:30 PM 70.5°F21.4°C 58.6°F14.8°C 66% 4.4 mph NW7.1 kmh NW 12.5 mph20.1 kmh 30.04 in1017.3 mb 0.00 in0.0 mm 0.00 in0.0 mm 0.23 in5.8 mm
12:45 PM 70.5°F21.4°C 58.6°F14.8°C 66% 5.5 mph WNW8.9 kmh WNW 14.0 mph22.5 kmh 30.04 in1017.3 mb 0.00 in0.0 mm 0.00 in0.0 mm 0.23 in5.8 mm
01:00 PM 68.5°F20.3°C 55.4°F13.0°C 63% 5.0 mph NW8.0 kmh NW 10.4 mph16.7 kmh 30.04 in1017.3 mb 0.00 in0.0 mm 0.00 in0.0 mm 0.23 in5.8 mm
01:15 PM 66.7°F19.3°C 55.0°F12.8°C 66% 4.2 mph NW6.8 kmh NW 9.3 mph15.0 kmh 30.01 in1016.3 mb 0.00 in0.0 mm 0.00 in0.0 mm 0.23 in5.8 mm
01:30 PM 66.2°F19.0°C 54.9°F12.7°C 67% 4.7 mph NW7.6 kmh NW 13.6 mph21.9 kmh 30.04 in1017.3 mb 0.00 in0.0 mm 0.00 in0.0 mm 0.23 in5.8 mm
01:45 PM 66.9°F19.4°C 57.2°F14.0°C 71% 5.0 mph NW8.0 kmh NW 11.8 mph19.0 kmh 30.04 in1017.3 mb 0.00 in0.0 mm 0.00 in0.0 mm 0.23 in5.8 mm
02:00 PM 68.4°F20.2°C 57.8°F14.3°C 69% 5.9 mph NW9.5 kmh NW 13.6 mph21.9 kmh 30.04 in1017.3 mb 0.00 in0.0 mm 0.00 in0.0 mm 0.23 in5.8 mm
02:15 PM 70.0°F21.1°C 59.7°F15.4°C 70% 5.1 mph WNW8.2 kmh WNW 16.5 mph26.6 kmh 30.04 in1017.3 mb 0.00 in0.0 mm 0.00 in0.0 mm 0.23 in5.8 mm
02:30 PM 71.1°F21.7°C 60.0°F15.6°C 68% 5.1 mph W8.2 kmh W 12.5 mph20.1 kmh 30.04 in1017.3 mb 0.00 in0.0 mm 0.00 in0.0 mm 0.23 in5.8 mm
02:45 PM 71.1°F21.7°C 59.5°F15.3°C 67% 3.4 mph WNW5.5 kmh WNW 14.0 mph22.5 kmh 30.04 in1017.3 mb 0.00 in0.0 mm 0.00 in0.0 mm 0.23 in5.8 mm
03:00 PM 71.4°F21.9°C 59.5°F15.3°C 66% 4.9 mph NW7.9 kmh NW 12.2 mph19.6 kmh 30.04 in1017.3 mb 0.00 in0.0 mm 0.00 in0.0 mm 0.23 in5.8 mm
03:15 PM 70.7°F21.5°C 58.4°F14.7°C 65% 4.0 mph W6.4 kmh W 14.0 mph22.5 kmh 30.04 in1017.3 mb 0.00 in0.0 mm 0.00 in0.0 mm 0.23 in5.8 mm
03:30 PM 69.6°F20.9°C 57.3°F14.1°C 65% 4.1 mph WNW6.6 kmh WNW 10.4 mph16.7 kmh 30.07 in1018.3 mb 0.00 in0.0 mm 0.00 in0.0 mm 0.23 in5.8 mm
03:45 PM 68.5°F20.3°C 55.9°F13.3°C 64% 3.6 mph NW5.8 kmh NW 9.3 mph15.0 kmh 30.07 in1018.3 mb 0.00 in0.0 mm 0.00 in0.0 mm 0.23 in5.8 mm
04:00 PM 67.3°F19.6°C 54.7°F12.6°C 64% 3.7 mph NW6.0 kmh NW 7.2 mph11.6 kmh 30.07 in1018.3 mb 0.00 in0.0 mm 0.00 in0.0 mm 0.23 in5.8 mm
04:15 PM 67.1°F19.5°C 54.9°F12.7°C 65% 3.0 mph WNW4.8 kmh WNW 12.5 mph20.1 kmh 30.07 in1018.3 mb 0.00 in0.0 mm 0.00 in0.0 mm 0.23 in5.8 mm
04:30 PM 67.6°F19.8°C 55.5°F13.1°C 65% 3.0 mph NW4.8 kmh NW 10.4 mph16.7 kmh 30.04 in1017.3 mb 0.00 in0.0 mm 0.00 in0.0 mm 0.23 in5.8 mm
04:45 PM 67.8°F19.9°C 55.2°F12.9°C 64% 3.1 mph NW5.0 kmh NW 9.3 mph15.0 kmh 30.04 in1017.3 mb 0.00 in0.0 mm 0.00 in0.0 mm 0.23 in5.8 mm
05:00 PM 67.5°F19.7°C 54.4°F12.4°C 63% 4.2 mph W6.8 kmh W 12.9 mph20.8 kmh 30.07 in1018.3 mb 0.00 in0.0 mm 0.00 in0.0 mm 0.23 in5.8 mm
05:15 PM 66.9°F19.4°C 54.3°F12.4°C 64% 4.0 mph WNW6.4 kmh WNW 13.6 mph21.9 kmh 30.07 in1018.3 mb 0.00 in0.0 mm 0.00 in0.0 mm 0.23 in5.8 mm
05:30 PM 66.4°F19.1°C 53.8°F12.1°C 64% 2.6 mph WNW4.2 kmh WNW 6.1 mph9.8 kmh 30.07 in1018.3 mb 0.00 in0.0 mm 0.00 in0.0 mm 0.23 in5.8 mm
05:45 PM 65.8°F18.8°C 53.7°F12.1°C 65% 2.9 mph NW4.7 kmh NW 8.6 mph13.8 kmh 30.07 in1018.3 mb 0.00 in0.0 mm 0.00 in0.0 mm 0.23 in5.8 mm
06:00 PM 65.3°F18.5°C 53.2°F11.8°C 65% 1.9 mph NNW3.1 kmh NNW 8.9 mph14.3 kmh 30.07 in1018.3 mb 0.00 in0.0 mm 0.00 in0.0 mm 0.23 in5.8 mm
06:15 PM 64.8°F18.2°C 53.1°F11.7°C 66% 0.3 mph W0.5 kmh W 5.7 mph9.2 kmh 30.07 in1018.3 mb 0.00 in0.0 mm 0.00 in0.0 mm 0.23 in5.8 mm
06:30 PM 64.0°F17.8°C 53.7°F12.1°C 69% 0.2 mph W0.3 kmh W 3.9 mph6.3 kmh 30.07 in1018.3 mb 0.00 in0.0 mm 0.00 in0.0 mm 0.23 in5.8 mm
06:45 PM 63.3°F17.4°C 54.1°F12.3°C 72% 0.2 mph W0.3 kmh W 3.2 mph5.1 kmh 30.07 in1018.3 mb 0.00 in0.0 mm 0.00 in0.0 mm 0.23 in5.8 mm
07:00 PM 62.4°F16.9°C 54.4°F12.4°C 75% Calm Calm -- 30.07 in1018.3 mb 0.00 in0.0 mm 0.00 in0.0 mm 0.23 in5.8 mm
07:15 PM 61.3°F16.3°C 54.1°F12.3°C 77% Calm Calm 1.4 mph2.3 kmh 30.07 in1018.3 mb 0.00 in0.0 mm 0.00 in0.0 mm 0.23 in5.8 mm
07:30 PM 60.4°F15.8°C 53.5°F11.9°C 78% Calm Calm -- 30.07 in1018.3 mb 0.00 in0.0 mm 0.00 in0.0 mm 0.23 in5.8 mm
07:45 PM 59.7°F15.4°C 53.2°F11.8°C 79% 0.4 mph S0.6 kmh S 3.6 mph5.8 kmh 30.09 in1019.0 mb 0.00 in0.0 mm 0.00 in0.0 mm 0.23 in5.8 mm
08:00 PM 59.2°F15.1°C 53.0°F11.7°C 80% Calm Calm -- 30.07 in1018.3 mb 0.00 in0.0 mm 0.00 in0.0 mm 0.23 in5.8 mm
08:15 PM 58.8°F14.9°C 52.7°F11.5°C 80% 0.7 mph S1.1 kmh S 4.3 mph6.9 kmh 30.09 in1019.0 mb 0.00 in0.0 mm 0.00 in0.0 mm 0.23 in5.8 mm
08:30 PM 58.5°F14.7°C 53.0°F11.7°C 82% Calm Calm -- 30.09 in1019.0 mb 0.00 in0.0 mm 0.00 in0.0 mm 0.23 in5.8 mm
08:45 PM 58.3°F14.6°C 52.8°F11.6°C 82% 0.4 mph S0.6 kmh S 3.2 mph5.1 kmh 30.09 in1019.0 mb 0.00 in0.0 mm 0.00 in0.0 mm 0.23 in5.8 mm
09:00 PM 57.7°F14.3°C 52.3°F11.3°C 82% 0.1 mph E0.2 kmh E 2.1 mph3.4 kmh 30.09 in1019.0 mb 0.00 in0.0 mm 0.00 in0.0 mm 0.23 in5.8 mm
09:15 PM 56.8°F13.8°C 51.7°F10.9°C 83% 0.3 mph E0.5 kmh E 4.3 mph6.9 kmh 30.09 in1019.0 mb 0.00 in0.0 mm 0.00 in0.0 mm 0.23 in5.8 mm
09:30 PM 56.3°F13.5°C 51.2°F10.7°C 83% Calm Calm -- 30.09 in1019.0 mb 0.00 in0.0 mm 0.00 in0.0 mm 0.23 in5.8 mm
09:45 PM 55.9°F13.3°C 51.2°F10.7°C 84% Calm Calm -- 30.09 in1019.0 mb 0.00 in0.0 mm 0.00 in0.0 mm 0.23 in5.8 mm
10:00 PM 55.6°F13.1°C 50.8°F10.4°C 84% Calm Calm -- 30.09 in1019.0 mb 0.00 in0.0 mm 0.00 in0.0 mm 0.23 in5.8 mm
10:15 PM 55.4°F13.0°C 51.0°F10.6°C 85% Calm Calm -- 30.09 in1019.0 mb 0.00 in0.0 mm 0.00 in0.0 mm 0.23 in5.8 mm
10:30 PM 55.2°F12.9°C 50.8°F10.4°C 85% 0.1 mph ESE0.2 kmh ESE 3.2 mph5.1 kmh 30.09 in1019.0 mb 0.00 in0.0 mm 0.00 in0.0 mm 0.23 in5.8 mm
10:45 PM 55.0°F12.8°C 50.9°F10.5°C 86% 0.4 mph ESE0.6 kmh ESE 4.3 mph6.9 kmh 30.09 in1019.0 mb 0.00 in0.0 mm 0.00 in0.0 mm 0.23 in5.8 mm
11:00 PM 54.9°F12.7°C 51.1°F10.6°C 87% Calm Calm -- 30.09 in1019.0 mb 0.00 in0.0 mm 0.00 in0.0 mm 0.24 in6.1 mm
11:15 PM 54.9°F12.7°C 51.1°F10.6°C 87% 1.9 mph E3.1 kmh E 5.7 mph9.2 kmh 30.09 in1019.0 mb 0.00 in0.0 mm 0.00 in0.0 mm 0.24 in6.1 mm
11:30 PM 54.9°F12.7°C 51.4°F10.8°C 88% 0.5 mph E0.8 kmh E 5.7 mph9.2 kmh 30.09 in1019.0 mb 0.00 in0.0 mm 0.00 in0.0 mm 0.24 in6.1 mm
11:45 PM 54.9°F12.7°C 51.4°F10.8°C 88% 3.0 mph E4.8 kmh E 5.7 mph9.2 kmh 30.09 in1019.0 mb 0.00 in0.0 mm 0.00 in0.0 mm 0.24 in6.1 mm